sensor_id;sensor_type;location;lat;lon;timestamp;P1;durP1;ratioP1;P2;durP2;ratioP2
11955;SDS011;6038;52.276;10.530;2023-06-14T00:01:43;891.73;;;823.53;;
11955;SDS011;6038;52.276;10.530;2023-06-14T00:04:13;896.60;;;830.17;;
11955;SDS011;6038;52.276;10.530;2023-06-14T00:06:43;953.83;;;883.03;;
11955;SDS011;6038;52.276;10.530;2023-06-14T00:09:13;900.77;;;831.57;;
11955;SDS011;6038;52.276;10.530;2023-06-14T00:11:43;895.83;;;827.23;;
11955;SDS011;6038;52.276;10.530;2023-06-14T00:14:09;951.10;;;880.10;;
11955;SDS011;6038;52.276;10.530;2023-06-14T00:16:35;821.27;;;758.93;;
11955;SDS011;6038;52.276;10.530;2023-06-14T00:19:02;887.07;;;819.10;;
11955;SDS011;6038;52.276;10.530;2023-06-14T00:21:28;863.70;;;797.73;;
11955;SDS011;6038;52.276;10.530;2023-06-14T00:23:55;858.63;;;793.33;;
11955;SDS011;6038;52.276;10.530;2023-06-14T00:26:21;918.73;;;851.07;;
11955;SDS011;6038;52.276;10.530;2023-06-14T00:28:47;875.23;;;810.90;;
11955;SDS011;6038;52.276;10.530;2023-06-14T00:31:13;719.87;;;666.33;;
11955;SDS011;6038;52.276;10.530;2023-06-14T00:33:39;752.57;;;696.17;;
11955;SDS011;6038;52.276;10.530;2023-06-14T00:36:05;760.57;;;703.70;;
11955;SDS011;6038;52.276;10.530;2023-06-14T00:38:31;794.70;;;734.87;;
11955;SDS011;6038;52.276;10.530;2023-06-14T00:40:57;660.33;;;613.60;;
11955;SDS011;6038;52.276;10.530;2023-06-14T00:43:23;814.30;;;755.17;;
11955;SDS011;6038;52.276;10.530;2023-06-14T00:45:49;772.93;;;714.97;;
11955;SDS011;6038;52.276;10.530;2023-06-14T00:48:16;870.63;;;807.17;;
11955;SDS011;6038;52.276;10.530;2023-06-14T00:50:42;826.63;;;764.33;;
11955;SDS011;6038;52.276;10.530;2023-06-14T00:53:10;934.73;;;865.87;;
11955;SDS011;6038;52.276;10.530;2023-06-14T00:55:36;952.70;;;879.20;;
11955;SDS011;6038;52.276;10.530;2023-06-14T00:58:02;976.87;;;903.97;;
11955;SDS011;6038;52.276;10.530;2023-06-14T01:00:28;926.73;;;855.60;;
11955;SDS011;6038;52.276;10.530;2023-06-14T01:02:54;890.57;;;822.87;;
11955;SDS011;6038;52.276;10.530;2023-06-14T01:05:21;937.60;;;865.43;;
11955;SDS011;6038;52.276;10.530;2023-06-14T01:08:05;979.23;;;905.50;;
11955;SDS011;6038;52.276;10.530;2023-06-14T01:10:37;915.23;;;844.97;;
11955;SDS011;6038;52.276;10.530;2023-06-14T01:15:42;962.60;;;887.60;;
11955;SDS011;6038;52.276;10.530;2023-06-14T01:18:09;936.53;;;864.07;;
11955;SDS011;6038;52.276;10.530;2023-06-14T01:20:42;904.23;;;835.27;;
11955;SDS011;6038;52.276;10.530;2023-06-14T01:23:10;939.27;;;866.53;;
11955;SDS011;6038;52.276;10.530;2023-06-14T01:25:37;858.33;;;793.63;;
11955;SDS011;6038;52.276;10.530;2023-06-14T01:28:04;923.10;;;855.03;;
11955;SDS011;6038;52.276;10.530;2023-06-14T01:30:39;875.30;;;808.60;;
11955;SDS011;6038;52.276;10.530;2023-06-14T01:33:10;840.87;;;777.57;;
11955;SDS011;6038;52.276;10.530;2023-06-14T01:35:36;853.47;;;788.87;;
11955;SDS011;6038;52.276;10.530;2023-06-14T01:38:02;877.23;;;813.80;;
11955;SDS011;6038;52.276;10.530;2023-06-14T01:40:29;885.70;;;821.23;;
11955;SDS011;6038;52.276;10.530;2023-06-14T01:42:56;860.60;;;795.63;;
11955;SDS011;6038;52.276;10.530;2023-06-14T01:45:23;940.63;;;870.73;;
11955;SDS011;6038;52.276;10.530;2023-06-14T01:47:49;893.70;;;825.67;;
11955;SDS011;6038;52.276;10.530;2023-06-14T01:50:15;931.87;;;863.13;;
11955;SDS011;6038;52.276;10.530;2023-06-14T01:52:41;883.30;;;816.13;;
11955;SDS011;6038;52.276;10.530;2023-06-14T01:55:07;955.03;;;883.83;;
11955;SDS011;6038;52.276;10.530;2023-06-14T01:57:34;896.77;;;828.17;;
11955;SDS011;6038;52.276;10.530;2023-06-14T02:00:00;920.33;;;849.53;;
11955;SDS011;6038;52.276;10.530;2023-06-14T02:02:26;924.27;;;852.43;;
11955;SDS011;6038;52.276;10.530;2023-06-14T02:04:52;913.03;;;842.73;;
11955;SDS011;6038;52.276;10.530;2023-06-14T02:07:22;939.90;;;868.63;;
11955;SDS011;6038;52.276;10.530;2023-06-14T02:09:48;934.20;;;860.00;;
11955;SDS011;6038;52.276;10.530;2023-06-14T02:12:14;940.27;;;862.90;;
11955;SDS011;6038;52.276;10.530;2023-06-14T02:14:40;942.47;;;864.10;;
11955;SDS011;6038;52.276;10.530;2023-06-14T02:17:06;960.30;;;882.03;;
11955;SDS011;6038;52.276;10.530;2023-06-14T02:19:32;953.50;;;876.90;;
11955;SDS011;6038;52.276;10.530;2023-06-14T02:21:59;938.70;;;860.93;;
11955;SDS011;6038;52.276;10.530;2023-06-14T02:24:25;947.17;;;869.57;;
11955;SDS011;6038;52.276;10.530;2023-06-14T02:26:51;948.17;;;871.07;;
11955;SDS011;6038;52.276;10.530;2023-06-14T02:29:17;944.67;;;867.60;;
11955;SDS011;6038;52.276;10.530;2023-06-14T02:31:43;942.87;;;865.20;;
11955;SDS011;6038;52.276;10.530;2023-06-14T02:34:11;934.33;;;856.17;;
11955;SDS011;6038;52.276;10.530;2023-06-14T02:36:37;922.50;;;842.70;;
11955;SDS011;6038;52.276;10.530;2023-06-14T02:39:06;930.20;;;850.60;;
11955;SDS011;6038;52.276;10.530;2023-06-14T02:41:34;920.43;;;840.13;;
11955;SDS011;6038;52.276;10.530;2023-06-14T02:44:00;938.47;;;858.10;;
11955;SDS011;6038;52.276;10.530;2023-06-14T02:46:26;939.10;;;857.93;;
11955;SDS011;6038;52.276;10.530;2023-06-14T02:48:52;914.07;;;833.53;;
11955;SDS011;6038;52.276;10.530;2023-06-14T02:51:18;934.00;;;852.90;;
11955;SDS011;6038;52.276;10.530;2023-06-14T02:53:44;923.93;;;843.53;;
11955;SDS011;6038;52.276;10.530;2023-06-14T02:56:10;911.03;;;831.10;;
11955;SDS011;6038;52.276;10.530;2023-06-14T02:58:37;922.83;;;842.40;;
11955;SDS011;6038;52.276;10.530;2023-06-14T03:01:04;912.27;;;833.27;;
11955;SDS011;6038;52.276;10.530;2023-06-14T03:03:32;908.33;;;828.20;;
11955;SDS011;6038;52.276;10.530;2023-06-14T03:05:58;914.50;;;835.03;;
11955;SDS011;6038;52.276;10.530;2023-06-14T03:08:29;904.27;;;823.93;;
11955;SDS011;6038;52.276;10.530;2023-06-14T03:10:55;916.07;;;835.60;;
11955;SDS011;6038;52.276;10.530;2023-06-14T03:13:21;904.07;;;823.20;;
11955;SDS011;6038;52.276;10.530;2023-06-14T03:15:47;899.27;;;818.83;;
11955;SDS011;6038;52.276;10.530;2023-06-14T03:18:15;896.90;;;816.93;;
11955;SDS011;6038;52.276;10.530;2023-06-14T03:20:41;898.73;;;818.03;;
11955;SDS011;6038;52.276;10.530;2023-06-14T03:23:08;906.10;;;825.10;;
11955;SDS011;6038;52.276;10.530;2023-06-14T03:25:34;900.33;;;818.70;;
11955;SDS011;6038;52.276;10.530;2023-06-14T03:28:03;894.37;;;813.13;;
11955;SDS011;6038;52.276;10.530;2023-06-14T03:30:30;887.43;;;806.13;;
11955;SDS011;6038;52.276;10.530;2023-06-14T03:32:56;888.17;;;806.87;;
11955;SDS011;6038;52.276;10.530;2023-06-14T03:35:22;900.47;;;818.67;;
11955;SDS011;6038;52.276;10.530;2023-06-14T03:37:48;901.33;;;819.63;;
11955;SDS011;6038;52.276;10.530;2023-06-14T03:40:16;891.63;;;809.43;;
11955;SDS011;6038;52.276;10.530;2023-06-14T03:42:42;899.83;;;818.20;;
11955;SDS011;6038;52.276;10.530;2023-06-14T03:45:08;899.73;;;817.77;;
11955;SDS011;6038;52.276;10.530;2023-06-14T03:47:34;903.17;;;820.93;;
11955;SDS011;6038;52.276;10.530;2023-06-14T03:50:01;902.70;;;820.13;;
11955;SDS011;6038;52.276;10.530;2023-06-14T03:52:27;901.53;;;819.53;;
11955;SDS011;6038;52.276;10.530;2023-06-14T03:54:53;899.60;;;817.07;;
11955;SDS011;6038;52.276;10.530;2023-06-14T03:57:19;888.17;;;805.37;;
11955;SDS011;6038;52.276;10.530;2023-06-14T03:59:46;898.50;;;815.93;;
11955;SDS011;6038;52.276;10.530;2023-06-14T04:02:12;887.30;;;804.10;;
11955;SDS011;6038;52.276;10.530;2023-06-14T04:04:42;902.70;;;819.97;;
11955;SDS011;6038;52.276;10.530;2023-06-14T04:07:13;890.63;;;807.37;;
11955;SDS011;6038;52.276;10.530;2023-06-14T04:09:40;906.90;;;823.43;;
11955;SDS011;6038;52.276;10.530;2023-06-14T04:12:06;907.03;;;823.63;;
11955;SDS011;6038;52.276;10.530;2023-06-14T04:14:34;894.47;;;810.30;;
11955;SDS011;6038;52.276;10.530;2023-06-14T04:17:00;906.13;;;822.83;;
11955;SDS011;6038;52.276;10.530;2023-06-14T04:19:26;906.90;;;823.40;;
11955;SDS011;6038;52.276;10.530;2023-06-14T04:21:52;898.83;;;814.53;;
11955;SDS011;6038;52.276;10.530;2023-06-14T04:24:18;910.30;;;826.60;;
11955;SDS011;6038;52.276;10.530;2023-06-14T04:26:44;911.93;;;828.17;;
11955;SDS011;6038;52.276;10.530;2023-06-14T04:29:13;900.57;;;815.97;;
11955;SDS011;6038;52.276;10.530;2023-06-14T04:31:41;903.33;;;819.00;;
11955;SDS011;6038;52.276;10.530;2023-06-14T04:34:07;916.43;;;832.23;;
11955;SDS011;6038;52.276;10.530;2023-06-14T04:36:33;910.33;;;827.03;;
11955;SDS011;6038;52.276;10.530;2023-06-14T04:39:00;907.30;;;823.10;;
11955;SDS011;6038;52.276;10.530;2023-06-14T04:41:28;913.20;;;829.60;;
11955;SDS011;6038;52.276;10.530;2023-06-14T04:43:59;918.77;;;834.70;;
11955;SDS011;6038;52.276;10.530;2023-06-14T04:46:29;916.00;;;832.27;;
11955;SDS011;6038;52.276;10.530;2023-06-14T04:48:57;916.53;;;832.67;;
11955;SDS011;6038;52.276;10.530;2023-06-14T04:51:27;910.47;;;826.13;;
11955;SDS011;6038;52.276;10.530;2023-06-14T04:53:57;925.03;;;840.97;;
11955;SDS011;6038;52.276;10.530;2023-06-14T04:56:24;920.30;;;834.83;;
11955;SDS011;6038;52.276;10.530;2023-06-14T04:58:50;933.90;;;849.37;;
11955;SDS011;6038;52.276;10.530;2023-06-14T05:01:18;925.70;;;840.40;;
11955;SDS011;6038;52.276;10.530;2023-06-14T05:03:44;919.57;;;834.43;;
11955;SDS011;6038;52.276;10.530;2023-06-14T05:06:13;929.63;;;845.20;;
11955;SDS011;6038;52.276;10.530;2023-06-14T05:08:39;937.13;;;852.23;;
11955;SDS011;6038;52.276;10.530;2023-06-14T05:11:05;940.07;;;855.03;;
11955;SDS011;6038;52.276;10.530;2023-06-14T05:13:31;929.17;;;843.40;;
11955;SDS011;6038;52.276;10.530;2023-06-14T05:15:57;946.50;;;861.23;;
11955;SDS011;6038;52.276;10.530;2023-06-14T05:18:24;932.80;;;846.80;;
11955;SDS011;6038;52.276;10.530;2023-06-14T05:20:50;945.37;;;860.27;;
11955;SDS011;6038;52.276;10.530;2023-06-14T05:23:16;930.93;;;844.97;;
11955;SDS011;6038;52.276;10.530;2023-06-14T05:25:43;940.63;;;854.13;;
11955;SDS011;6038;52.276;10.530;2023-06-14T05:28:09;943.17;;;856.23;;
11955;SDS011;6038;52.276;10.530;2023-06-14T05:30:36;940.80;;;853.93;;
11955;SDS011;6038;52.276;10.530;2023-06-14T05:33:02;949.23;;;863.73;;
11955;SDS011;6038;52.276;10.530;2023-06-14T05:35:28;951.20;;;865.53;;
11955;SDS011;6038;52.276;10.530;2023-06-14T05:37:54;955.93;;;870.07;;
11955;SDS011;6038;52.276;10.530;2023-06-14T05:40:21;956.63;;;870.77;;
11955;SDS011;6038;52.276;10.530;2023-06-14T05:42:47;961.93;;;875.27;;
11955;SDS011;6038;52.276;10.530;2023-06-14T05:45:13;971.40;;;884.47;;
11955;SDS011;6038;52.276;10.530;2023-06-14T05:47:41;968.77;;;881.90;;
11955;SDS011;6038;52.276;10.530;2023-06-14T05:50:07;968.93;;;882.13;;
11955;SDS011;6038;52.276;10.530;2023-06-14T05:52:33;965.27;;;877.47;;
11955;SDS011;6038;52.276;10.530;2023-06-14T05:55:00;970.77;;;882.50;;
11955;SDS011;6038;52.276;10.530;2023-06-14T05:57:26;966.60;;;878.60;;
11955;SDS011;6038;52.276;10.530;2023-06-14T05:59:52;969.30;;;881.10;;
11955;SDS011;6038;52.276;10.530;2023-06-14T06:02:18;986.93;;;899.40;;
11955;SDS011;6038;52.276;10.530;2023-06-14T06:04:44;988.60;;;901.23;;
11955;SDS011;6038;52.276;10.530;2023-06-14T06:07:10;991.03;;;903.40;;
11955;SDS011;6038;52.276;10.530;2023-06-14T06:09:36;987.57;;;898.37;;
11955;SDS011;6038;52.276;10.530;2023-06-14T06:12:02;985.30;;;896.10;;
11955;SDS011;6038;52.276;10.530;2023-06-14T06:14:28;1001.87;;;912.93;;
11955;SDS011;6038;52.276;10.530;2023-06-14T06:16:54;1010.77;;;921.67;;
11955;SDS011;6038;52.276;10.530;2023-06-14T06:19:20;1009.67;;;920.60;;
11955;SDS011;6038;52.276;10.530;2023-06-14T06:21:46;1016.00;;;926.97;;
11955;SDS011;6038;52.276;10.530;2023-06-14T06:24:12;1007.77;;;917.37;;
11955;SDS011;6038;52.276;10.530;2023-06-14T06:26:38;1017.47;;;928.20;;
11955;SDS011;6038;52.276;10.530;2023-06-14T06:29:05;1015.57;;;924.97;;
11955;SDS011;6038;52.276;10.530;2023-06-14T06:31:31;1027.23;;;937.13;;
11955;SDS011;6038;52.276;10.530;2023-06-14T06:33:57;1026.67;;;935.13;;
11955;SDS011;6038;52.276;10.530;2023-06-14T06:36:23;1032.07;;;942.03;;
11955;SDS011;6038;52.276;10.530;2023-06-14T06:38:49;1026.73;;;935.67;;
11955;SDS011;6038;52.276;10.530;2023-06-14T06:41:15;1044.53;;;953.43;;
11955;SDS011;6038;52.276;10.530;2023-06-14T06:43:41;1041.80;;;951.07;;
11955;SDS011;6038;52.276;10.530;2023-06-14T06:46:07;1030.57;;;938.80;;
11955;SDS011;6038;52.276;10.530;2023-06-14T06:48:33;1032.70;;;941.10;;
11955;SDS011;6038;52.276;10.530;2023-06-14T06:51:00;1037.77;;;945.90;;
11955;SDS011;6038;52.276;10.530;2023-06-14T06:53:26;1040.97;;;948.90;;
11955;SDS011;6038;52.276;10.530;2023-06-14T06:55:52;1050.57;;;959.37;;
11955;SDS011;6038;52.276;10.530;2023-06-14T06:58:18;1054.33;;;962.97;;
11955;SDS011;6038;52.276;10.530;2023-06-14T07:00:44;1058.83;;;967.13;;
11955;SDS011;6038;52.276;10.530;2023-06-14T07:03:10;1069.47;;;976.93;;
11955;SDS011;6038;52.276;10.530;2023-06-14T07:05:36;1058.70;;;965.80;;
11955;SDS011;6038;52.276;10.530;2023-06-14T07:08:02;1068.90;;;976.20;;
11955;SDS011;6038;52.276;10.530;2023-06-14T07:10:28;1069.67;;;976.17;;
11955;SDS011;6038;52.276;10.530;2023-06-14T07:12:55;1072.70;;;980.57;;
11955;SDS011;6038;52.276;10.530;2023-06-14T07:15:21;1071.83;;;979.40;;
11955;SDS011;6038;52.276;10.530;2023-06-14T07:17:47;1073.00;;;980.20;;
11955;SDS011;6038;52.276;10.530;2023-06-14T07:20:13;1077.63;;;984.43;;
11955;SDS011;6038;52.276;10.530;2023-06-14T07:22:40;1083.80;;;990.70;;
11955;SDS011;6038;52.276;10.530;2023-06-14T07:25:10;1077.67;;;986.33;;
11955;SDS011;6038;52.276;10.530;2023-06-14T07:27:39;1085.60;;;993.43;;
11955;SDS011;6038;52.276;10.530;2023-06-14T07:30:05;1084.50;;;991.77;;
11955;SDS011;6038;52.276;10.530;2023-06-14T07:32:32;1083.40;;;990.40;;
11955;SDS011;6038;52.276;10.530;2023-06-14T07:34:57;1087.37;;;994.40;;
11955;SDS011;6038;52.276;10.530;2023-06-14T07:37:23;1091.63;;;998.17;;
11955;SDS011;6038;52.276;10.530;2023-06-14T07:39:49;1090.43;;;995.90;;
11955;SDS011;6038;52.276;10.530;2023-06-14T07:42:15;1098.00;;;999.90;;
11955;SDS011;6038;52.276;10.530;2023-06-14T07:44:41;1093.63;;;998.47;;
11955;SDS011;6038;52.276;10.530;2023-06-14T07:47:07;1102.43;;;999.90;;
11955;SDS011;6038;52.276;10.530;2023-06-14T07:49:33;1107.70;;;999.90;;
11955;SDS011;6038;52.276;10.530;2023-06-14T07:51:59;1101.87;;;999.90;;
11955;SDS011;6038;52.276;10.530;2023-06-14T07:54:25;1112.13;;;999.90;;
11955;SDS011;6038;52.276;10.530;2023-06-14T07:56:52;1118.40;;;999.90;;
11955;SDS011;6038;52.276;10.530;2023-06-14T07:59:18;1123.50;;;999.90;;
11955;SDS011;6038;52.276;10.530;2023-06-14T08:01:44;1122.43;;;999.90;;
11955;SDS011;6038;52.276;10.530;2023-06-14T08:04:15;1136.00;;;999.90;;
11955;SDS011;6038;52.276;10.530;2023-06-14T08:06:41;1127.60;;;999.90;;
11955;SDS011;6038;52.276;10.530;2023-06-14T08:09:10;1143.13;;;999.90;;
11955;SDS011;6038;52.276;10.530;2023-06-14T08:11:36;1148.57;;;999.90;;
11955;SDS011;6038;52.276;10.530;2023-06-14T08:14:02;1157.90;;;999.90;;
11955;SDS011;6038;52.276;10.530;2023-06-14T08:16:28;1151.80;;;999.90;;
11955;SDS011;6038;52.276;10.530;2023-06-14T08:18:55;1162.90;;;999.90;;
11955;SDS011;6038;52.276;10.530;2023-06-14T08:21:21;1167.00;;;999.90;;
11955;SDS011;6038;52.276;10.530;2023-06-14T08:23:48;1177.97;;;999.90;;
11955;SDS011;6038;52.276;10.530;2023-06-14T08:26:17;1174.20;;;999.90;;
11955;SDS011;6038;52.276;10.530;2023-06-14T08:28:44;1175.57;;;999.90;;
11955;SDS011;6038;52.276;10.530;2023-06-14T08:31:10;1176.28;;;999.90;;
11955;SDS011;6038;52.276;10.530;2023-06-14T08:33:36;1177.03;;;999.90;;
11955;SDS011;6038;52.276;10.530;2023-06-14T08:36:02;1185.93;;;999.90;;
11955;SDS011;6038;52.276;10.530;2023-06-14T08:38:28;1179.80;;;999.90;;
11955;SDS011;6038;52.276;10.530;2023-06-14T08:40:57;1182.65;;;999.90;;
11955;SDS011;6038;52.276;10.530;2023-06-14T08:43:23;1188.32;;;999.90;;
11955;SDS011;6038;52.276;10.530;2023-06-14T08:45:49;1193.55;;;999.90;;
11955;SDS011;6038;52.276;10.530;2023-06-14T08:48:18;1190.75;;;999.90;;
11955;SDS011;6038;52.276;10.530;2023-06-14T08:50:46;1190.88;;;999.90;;
11955;SDS011;6038;52.276;10.530;2023-06-14T08:53:13;1171.95;;;999.90;;
11955;SDS011;6038;52.276;10.530;2023-06-14T08:55:45;1166.07;;;999.90;;
11955;SDS011;6038;52.276;10.530;2023-06-14T08:58:12;1171.88;;;999.90;;
11955;SDS011;6038;52.276;10.530;2023-06-14T09:00:39;1195.70;;;999.90;;
11955;SDS011;6038;52.276;10.530;2023-06-14T09:03:07;1193.85;;;999.90;;
11955;SDS011;6038;52.276;10.530;2023-06-14T09:05:38;1217.55;;;999.90;;
11955;SDS011;6038;52.276;10.530;2023-06-14T09:08:04;1168.50;;;999.90;;
11955;SDS011;6038;52.276;10.530;2023-06-14T09:10:31;1204.50;;;999.90;;
11955;SDS011;6038;52.276;10.530;2023-06-14T09:13:02;1205.82;;;999.90;;
11955;SDS011;6038;52.276;10.530;2023-06-14T09:15:31;1207.43;;;999.90;;
11955;SDS011;6038;52.276;10.530;2023-06-14T09:17:57;1204.68;;;999.90;;
11955;SDS011;6038;52.276;10.530;2023-06-14T09:20:24;1191.15;;;999.90;;
11955;SDS011;6038;52.276;10.530;2023-06-14T09:22:50;1207.10;;;999.90;;
11955;SDS011;6038;52.276;10.530;2023-06-14T09:25:16;1183.75;;;999.90;;
11955;SDS011;6038;52.276;10.530;2023-06-14T09:27:43;1191.40;;;999.90;;
11955;SDS011;6038;52.276;10.530;2023-06-14T09:30:09;1214.05;;;999.90;;
11955;SDS011;6038;52.276;10.530;2023-06-14T09:32:36;1185.18;;;999.90;;
11955;SDS011;6038;52.276;10.530;2023-06-14T09:35:03;1172.20;;;999.90;;
11955;SDS011;6038;52.276;10.530;2023-06-14T09:37:30;1190.63;;;999.90;;
11955;SDS011;6038;52.276;10.530;2023-06-14T09:39:57;1197.30;;;999.90;;
11955;SDS011;6038;52.276;10.530;2023-06-14T09:42:23;1187.55;;;999.90;;
11955;SDS011;6038;52.276;10.530;2023-06-14T09:44:53;1231.60;;;999.90;;
11955;SDS011;6038;52.276;10.530;2023-06-14T09:47:19;1219.63;;;999.90;;
11955;SDS011;6038;52.276;10.530;2023-06-14T09:49:46;1236.25;;;999.90;;
11955;SDS011;6038;52.276;10.530;2023-06-14T09:52:22;1237.50;;;999.90;;
11955;SDS011;6038;52.276;10.530;2023-06-14T09:54:48;1218.30;;;999.90;;
11955;SDS011;6038;52.276;10.530;2023-06-14T09:57:15;1207.95;;;999.90;;
11955;SDS011;6038;52.276;10.530;2023-06-14T09:59:45;1223.72;;;999.90;;
11955;SDS011;6038;52.276;10.530;2023-06-14T10:04:43;1154.05;;;999.90;;
11955;SDS011;6038;52.276;10.530;2023-06-14T10:07:13;1123.72;;;999.90;;
11955;SDS011;6038;52.276;10.530;2023-06-14T10:09:40;1142.05;;;999.90;;
11955;SDS011;6038;52.276;10.530;2023-06-14T10:12:09;1158.05;;;999.90;;
11955;SDS011;6038;52.276;10.530;2023-06-14T10:14:35;1109.53;;;999.90;;
11955;SDS011;6038;52.276;10.530;2023-06-14T10:17:06;1105.90;;;999.90;;
11955;SDS011;6038;52.276;10.530;2023-06-14T10:19:48;1095.38;;;996.65;;
11955;SDS011;6038;52.276;10.530;2023-06-14T10:22:19;1087.45;;;990.13;;
11955;SDS011;6038;52.276;10.530;2023-06-14T10:24:48;1105.53;;;999.90;;
11955;SDS011;6038;52.276;10.530;2023-06-14T10:27:15;1081.45;;;983.92;;
11955;SDS011;6038;52.276;10.530;2023-06-14T10:32:26;1105.88;;;999.90;;
11955;SDS011;6038;52.276;10.530;2023-06-14T10:34:54;1108.78;;;999.90;;
11955;SDS011;6038;52.276;10.530;2023-06-14T10:37:20;1152.53;;;999.90;;
11955;SDS011;6038;52.276;10.530;2023-06-14T10:39:46;1160.90;;;999.90;;
11955;SDS011;6038;52.276;10.530;2023-06-14T10:42:13;1112.68;;;999.90;;
11955;SDS011;6038;52.276;10.530;2023-06-14T10:44:40;1101.05;;;998.67;;
11955;SDS011;6038;52.276;10.530;2023-06-14T10:47:07;1127.85;;;999.90;;
11955;SDS011;6038;52.276;10.530;2023-06-14T10:49:38;1103.78;;;998.00;;
11955;SDS011;6038;52.276;10.530;2023-06-14T10:52:14;1151.32;;;999.90;;
11955;SDS011;6038;52.276;10.530;2023-06-14T10:57:22;1230.88;;;999.90;;
11955;SDS011;6038;52.276;10.530;2023-06-14T10:59:48;1207.25;;;999.90;;
11955;SDS011;6038;52.276;10.530;2023-06-14T11:04:47;1177.40;;;999.90;;
11955;SDS011;6038;52.276;10.530;2023-06-14T11:12:45;1199.35;;;999.90;;
11955;SDS011;6038;52.276;10.530;2023-06-14T11:15:13;1158.95;;;999.90;;
11955;SDS011;6038;52.276;10.530;2023-06-14T11:17:39;1192.53;;;999.90;;
11955;SDS011;6038;52.276;10.530;2023-06-14T11:20:11;1201.40;;;999.90;;
11955;SDS011;6038;52.276;10.530;2023-06-14T11:22:44;1142.45;;;999.90;;
11955;SDS011;6038;52.276;10.530;2023-06-14T11:25:13;1126.65;;;999.90;;
11955;SDS011;6038;52.276;10.530;2023-06-14T11:27:43;1065.82;;;966.00;;
11955;SDS011;6038;52.276;10.530;2023-06-14T11:30:09;1053.78;;;955.30;;
11955;SDS011;6038;52.276;10.530;2023-06-14T11:32:35;1076.22;;;976.15;;
11955;SDS011;6038;52.276;10.530;2023-06-14T11:35:02;1032.85;;;936.78;;
11955;SDS011;6038;52.276;10.530;2023-06-14T11:37:29;1092.40;;;991.70;;
11955;SDS011;6038;52.276;10.530;2023-06-14T11:39:59;1025.63;;;930.03;;
11955;SDS011;6038;52.276;10.530;2023-06-14T11:42:28;1058.45;;;960.47;;
11955;SDS011;6038;52.276;10.530;2023-06-14T11:44:55;1049.40;;;952.20;;
11955;SDS011;6038;52.276;10.530;2023-06-14T11:47:21;1024.05;;;928.97;;
11955;SDS011;6038;52.276;10.530;2023-06-14T11:49:48;1017.58;;;923.03;;
11955;SDS011;6038;52.276;10.530;2023-06-14T11:52:14;1044.38;;;948.00;;
11955;SDS011;6038;52.276;10.530;2023-06-14T11:54:40;1005.60;;;912.67;;
11955;SDS011;6038;52.276;10.530;2023-06-14T11:57:06;1087.93;;;987.55;;
11955;SDS011;6038;52.276;10.530;2023-06-14T11:59:42;1090.80;;;989.00;;
11955;SDS011;6038;52.276;10.530;2023-06-14T12:02:09;1078.40;;;976.53;;
11955;SDS011;6038;52.276;10.530;2023-06-14T12:04:35;1064.35;;;962.42;;
11955;SDS011;6038;52.276;10.530;2023-06-14T12:07:11;1033.47;;;933.72;;
11955;SDS011;6038;52.276;10.530;2023-06-14T12:09:40;1041.10;;;940.28;;
11955;SDS011;6038;52.276;10.530;2023-06-14T12:12:09;1020.08;;;920.97;;
11955;SDS011;6038;52.276;10.530;2023-06-14T12:14:36;1053.20;;;951.72;;
11955;SDS011;6038;52.276;10.530;2023-06-14T12:17:05;997.22;;;901.47;;
11955;SDS011;6038;52.276;10.530;2023-06-14T12:19:31;951.45;;;861.03;;
11955;SDS011;6038;52.276;10.530;2023-06-14T12:22:00;984.55;;;891.38;;
11955;SDS011;6038;52.276;10.530;2023-06-14T12:24:29;995.85;;;901.88;;
11955;SDS011;6038;52.276;10.530;2023-06-14T12:26:58;1008.22;;;913.30;;
11955;SDS011;6038;52.276;10.530;2023-06-14T12:29:28;959.72;;;869.28;;
11955;SDS011;6038;52.276;10.530;2023-06-14T12:31:54;965.15;;;874.60;;
11955;SDS011;6038;52.276;10.530;2023-06-14T12:34:22;979.55;;;888.22;;
11955;SDS011;6038;52.276;10.530;2023-06-14T12:36:49;964.33;;;874.88;;
11955;SDS011;6038;52.276;10.530;2023-06-14T12:39:15;1002.50;;;909.00;;
11955;SDS011;6038;52.276;10.530;2023-06-14T12:41:41;978.17;;;887.55;;
11955;SDS011;6038;52.276;10.530;2023-06-14T12:44:07;979.00;;;887.85;;
11955;SDS011;6038;52.276;10.530;2023-06-14T12:46:33;1007.20;;;913.75;;
11955;SDS011;6038;52.276;10.530;2023-06-14T12:49:00;1074.95;;;974.95;;
11955;SDS011;6038;52.276;10.530;2023-06-14T12:51:26;1051.40;;;952.58;;
11955;SDS011;6038;52.276;10.530;2023-06-14T12:53:52;1014.58;;;918.97;;
11955;SDS011;6038;52.276;10.530;2023-06-14T12:56:18;1007.42;;;912.13;;
11955;SDS011;6038;52.276;10.530;2023-06-14T12:58:44;1025.72;;;929.25;;
11955;SDS011;6038;52.276;10.530;2023-06-14T13:01:10;1038.60;;;940.88;;
11955;SDS011;6038;52.276;10.530;2023-06-14T13:03:36;1052.53;;;954.55;;
11955;SDS011;6038;52.276;10.530;2023-06-14T13:06:02;1055.88;;;957.85;;
11955;SDS011;6038;52.276;10.530;2023-06-14T13:08:29;1074.10;;;975.38;;
11955;SDS011;6038;52.276;10.530;2023-06-14T13:10:55;1071.80;;;973.97;;
11955;SDS011;6038;52.276;10.530;2023-06-14T13:13:21;1047.75;;;951.92;;
11955;SDS011;6038;52.276;10.530;2023-06-14T13:15:47;1042.60;;;946.85;;
11955;SDS011;6038;52.276;10.530;2023-06-14T13:18:14;1022.80;;;929.47;;
11955;SDS011;6038;52.276;10.530;2023-06-14T13:20:41;1054.05;;;957.63;;
11955;SDS011;6038;52.276;10.530;2023-06-14T13:23:07;1026.13;;;932.42;;
11955;SDS011;6038;52.276;10.530;2023-06-14T13:25:34;1004.33;;;912.83;;
11955;SDS011;6038;52.276;10.530;2023-06-14T13:28:00;1065.57;;;969.08;;
11955;SDS011;6038;52.276;10.530;2023-06-14T13:30:27;1113.05;;;999.90;;
11955;SDS011;6038;52.276;10.530;2023-06-14T13:32:52;1038.57;;;945.13;;
11955;SDS011;6038;52.276;10.530;2023-06-14T13:35:19;1063.93;;;968.50;;
11955;SDS011;6038;52.276;10.530;2023-06-14T13:37:45;1078.50;;;981.72;;
11955;SDS011;6038;52.276;10.530;2023-06-14T13:40:11;1016.92;;;925.20;;
11955;SDS011;6038;52.276;10.530;2023-06-14T13:42:37;1004.10;;;913.10;;
11955;SDS011;6038;52.276;10.530;2023-06-14T13:45:04;1037.25;;;943.67;;
11955;SDS011;6038;52.276;10.530;2023-06-14T13:47:30;1036.75;;;942.95;;
11955;SDS011;6038;52.276;10.530;2023-06-14T13:49:56;1066.40;;;970.28;;
11955;SDS011;6038;52.276;10.530;2023-06-14T13:52:23;1022.28;;;929.30;;
11955;SDS011;6038;52.276;10.530;2023-06-14T13:54:49;1097.18;;;998.22;;
11955;SDS011;6038;52.276;10.530;2023-06-14T13:57:15;1032.18;;;938.65;;
11955;SDS011;6038;52.276;10.530;2023-06-14T13:59:41;1062.13;;;966.60;;
11955;SDS011;6038;52.276;10.530;2023-06-14T14:02:09;998.95;;;908.47;;
11955;SDS011;6038;52.276;10.530;2023-06-14T14:04:36;950.78;;;864.83;;
11955;SDS011;6038;52.276;10.530;2023-06-14T14:07:02;1007.00;;;916.00;;
11955;SDS011;6038;52.276;10.530;2023-06-14T14:09:28;953.83;;;867.35;;